createdAt,value
2022-10-01T00:01:32.820Z,3.45
2022-10-01T00:04:39.175Z,3.28
2022-10-01T00:07:45.991Z,2.67
2022-10-01T00:10:49.177Z,4.22
2022-10-01T00:13:58.555Z,5.63
2022-10-01T00:17:07.187Z,5.88
2022-10-01T00:20:15.244Z,6.00
2022-10-01T00:23:20.966Z,6.88
2022-10-01T00:26:36.991Z,7.95
2022-10-01T00:33:25.604Z,6.03
2022-10-01T00:36:43.609Z,7.03
2022-10-01T00:39:47.540Z,9.00
2022-10-01T00:42:52.097Z,9.32
2022-10-01T00:49:30.862Z,5.43
2022-10-01T00:52:38.268Z,6.97
2022-10-01T00:55:49.186Z,6.80
2022-10-01T00:58:55.646Z,7.70
2022-10-01T01:01:59.802Z,7.57
2022-10-01T01:16:04.649Z,8.00
2022-10-01T01:19:46.363Z,6.70
2022-10-01T01:27:17.494Z,8.73
2022-10-01T01:33:51.534Z,9.15
2022-10-01T01:37:21.107Z,7.18
2022-10-01T01:52:12.825Z,10.85
2022-10-01T02:07:23.814Z,3.33
2022-10-01T02:51:28.912Z,1.38
2022-10-01T02:54:55.307Z,0.98
2022-10-01T03:02:37.785Z,0.50
2022-10-01T03:16:04.770Z,0.60
2022-10-01T03:19:10.096Z,0.90
2022-10-01T03:22:16.802Z,0.50
2022-10-01T03:25:20.309Z,0.68
2022-10-01T03:31:34.464Z,0.70
2022-10-01T03:34:41.642Z,0.40
2022-10-01T03:37:49.241Z,1.15
2022-10-01T03:40:57.066Z,1.10
2022-10-01T03:47:10.205Z,0.82
2022-10-01T03:50:15.644Z,0.70
2022-10-01T03:53:21.711Z,0.75
2022-10-01T03:56:28.526Z,1.20
2022-10-01T03:59:36.366Z,1.23
2022-10-01T04:02:50.901Z,1.20
2022-10-01T04:05:58.563Z,0.80
2022-10-01T04:12:11.914Z,0.50
2022-10-01T04:15:18.480Z,0.50
2022-10-01T04:18:25.155Z,0.70
2022-10-01T04:21:31.127Z,0.90
2022-10-01T04:24:37.793Z,0.65
2022-10-01T04:27:57.463Z,0.90
2022-10-01T04:31:22.004Z,0.80
2022-10-01T04:34:59.431Z,0.88
2022-10-01T04:48:00.185Z,0.80
2022-10-01T04:51:05.321Z,0.50
2022-10-01T04:54:13.420Z,0.82
2022-10-01T04:57:22.349Z,0.82
2022-10-01T05:00:29.232Z,0.50
2022-10-01T05:03:36.522Z,0.30
2022-10-01T05:06:44.332Z,0.60
2022-10-01T05:09:51.000Z,0.50
2022-10-01T05:12:59.213Z,0.50
2022-10-01T05:16:05.942Z,0.50
2022-10-01T05:19:12.160Z,0.50
2022-10-01T05:22:19.265Z,0.50
2022-10-01T05:25:25.520Z,0.60
2022-10-01T05:28:32.767Z,0.30
2022-10-01T05:31:38.596Z,0.35
2022-10-01T05:34:48.816Z,0.68
2022-10-01T05:38:01.752Z,0.70
2022-10-01T05:41:08.623Z,0.70
2022-10-01T05:44:14.385Z,1.67
2022-10-01T05:47:25.153Z,0.80
2022-10-01T05:51:06.616Z,0.73
2022-10-01T05:54:15.681Z,0.60
2022-10-01T06:00:35.282Z,1.03
2022-10-01T06:03:42.457Z,0.30
2022-10-01T06:06:48.118Z,0.50
2022-10-01T06:09:55.313Z,0.60
2022-10-01T06:13:08.018Z,0.60
2022-10-01T06:16:17.999Z,0.60
2022-10-01T06:19:23.363Z,0.70
2022-10-01T06:22:31.338Z,0.70
2022-10-01T06:25:40.156Z,0.60
2022-10-01T06:28:47.038Z,0.60
2022-10-01T06:31:52.531Z,0.70
2022-10-01T06:34:59.487Z,0.70
2022-10-01T06:38:06.525Z,0.83
2022-10-01T06:41:12.520Z,0.43
2022-10-01T06:44:22.283Z,0.65
2022-10-01T06:47:29.138Z,0.45
2022-10-01T06:50:35.007Z,0.40
2022-10-01T06:53:40.453Z,0.20
2022-10-01T06:56:46.821Z,0.70
2022-10-01T06:59:53.711Z,0.70
2022-10-01T07:03:00.174Z,1.00
2022-10-01T07:06:10.330Z,0.95
2022-10-01T07:09:16.089Z,0.60
2022-10-01T07:12:25.230Z,0.63
2022-10-01T07:15:32.509Z,0.40
2022-10-01T07:18:38.885Z,0.90
2022-10-01T07:21:49.052Z,0.90
2022-10-01T07:24:56.949Z,0.68
2022-10-01T07:28:08.082Z,1.40
2022-10-01T07:31:14.861Z,0.80
2022-10-01T07:34:21.386Z,0.90
2022-10-01T07:37:28.871Z,0.60
2022-10-01T07:40:42.929Z,0.68
2022-10-01T07:43:49.916Z,0.85
2022-10-01T07:46:57.141Z,0.80
2022-10-01T07:50:03.778Z,0.80
2022-10-01T07:53:10.249Z,0.50
2022-10-01T07:56:16.611Z,0.90
2022-10-01T07:59:24.108Z,1.03
2022-10-01T08:02:30.841Z,0.85
2022-10-01T08:05:38.795Z,1.05
2022-10-01T08:08:46.599Z,1.23
2022-10-01T08:11:52.561Z,1.00
2022-10-01T08:14:58.622Z,0.63
2022-10-01T08:18:08.585Z,0.70
2022-10-01T08:21:15.963Z,1.27
2022-10-01T08:24:22.434Z,0.90
2022-10-01T08:27:30.747Z,10.18
2022-10-01T08:30:39.373Z,4.22
2022-10-01T08:33:46.060Z,1.65
2022-10-01T08:36:56.111Z,1.30
2022-10-01T08:40:02.694Z,0.73
2022-10-01T08:43:13.447Z,0.70
2022-10-01T08:46:23.507Z,0.60
2022-10-01T08:49:40.426Z,1.35
2022-10-01T08:52:58.766Z,0.70
2022-10-01T08:56:09.909Z,0.80
2022-10-01T08:59:46.632Z,1.00
2022-10-01T09:02:54.234Z,1.08
2022-10-01T09:06:31.526Z,0.80
2022-10-01T09:09:49.876Z,0.80
2022-10-01T09:13:11.821Z,1.45
2022-10-01T09:16:30.758Z,1.30
2022-10-01T09:20:04.083Z,1.35
2022-10-01T09:23:33.789Z,0.80
2022-10-01T09:26:45.606Z,0.70
2022-10-01T09:30:03.221Z,0.60
2022-10-01T09:33:19.848Z,0.50
2022-10-01T09:36:37.672Z,0.75
2022-10-01T09:40:08.210Z,0.75
2022-10-01T09:43:15.701Z,1.00
2022-10-01T09:46:23.659Z,0.50
2022-10-01T09:49:57.430Z,0.80
2022-10-01T09:53:05.229Z,0.70
2022-10-01T09:56:18.383Z,0.75
2022-10-01T09:59:58.827Z,0.90
2022-10-01T10:03:05.934Z,1.75
2022-10-01T10:06:12.994Z,0.85
2022-10-01T10:09:24.581Z,1.10
2022-10-01T10:12:34.141Z,1.33
2022-10-01T10:15:53.479Z,0.80
2022-10-01T10:19:10.740Z,0.63
2022-10-01T10:22:29.998Z,0.68
2022-10-01T10:25:36.164Z,0.60
2022-10-01T10:28:48.916Z,0.77
2022-10-01T10:31:57.707Z,1.63
2022-10-01T10:35:13.299Z,1.70
2022-10-01T10:38:22.333Z,1.58
2022-10-01T10:41:31.969Z,2.38
2022-10-01T10:44:45.098Z,1.50
2022-10-01T10:47:56.411Z,1.42
2022-10-01T10:51:05.854Z,2.50
2022-10-01T10:54:31.958Z,0.50
2022-10-01T10:57:39.276Z,1.40
2022-10-01T11:00:54.946Z,1.33
2022-10-01T11:04:02.435Z,0.93
2022-10-01T11:07:09.325Z,1.00
2022-10-01T11:10:34.248Z,1.75
2022-10-01T11:14:02.907Z,0.50
2022-10-01T11:17:34.177Z,0.80
2022-10-01T11:21:35.673Z,0.82
2022-10-01T11:24:53.774Z,1.42
2022-10-01T11:28:10.004Z,1.00
2022-10-01T11:31:51.890Z,0.90
2022-10-01T11:35:16.758Z,0.80
2022-10-01T11:38:46.536Z,0.90
2022-10-01T11:42:06.464Z,0.90
2022-10-01T11:45:32.495Z,0.90
2022-10-01T11:53:07.502Z,0.63
2022-10-01T12:08:06.355Z,0.90
2022-10-01T12:11:27.792Z,0.75
2022-10-01T12:23:19.138Z,0.85
2022-10-01T12:31:22.593Z,0.77
2022-10-01T12:44:44.179Z,0.80
2022-10-01T12:48:35.344Z,1.20
2022-10-01T13:00:47.759Z,0.65
2022-10-01T13:04:35.108Z,0.95
2022-10-01T13:07:53.847Z,1.08
2022-10-01T13:11:06.502Z,1.13
2022-10-01T13:14:18.074Z,1.52
2022-10-01T13:39:48.289Z,1.08
2022-10-01T13:46:18.080Z,0.73
2022-10-01T13:49:30.700Z,0.60
2022-10-01T13:52:36.170Z,0.82
2022-10-01T13:55:43.821Z,0.70
2022-10-01T13:58:49.151Z,0.77
2022-10-01T14:01:56.245Z,0.80
2022-10-01T14:18:16.238Z,0.63
2022-10-01T14:30:45.070Z,0.77
2022-10-01T14:34:17.703Z,0.70
2022-10-01T14:48:16.784Z,0.73
2022-10-01T15:07:51.261Z,0.93
2022-10-01T15:11:22.815Z,0.63
2022-10-01T15:43:27.630Z,0.90
2022-10-01T16:00:03.481Z,0.90
2022-10-01T16:03:54.570Z,1.08
2022-10-01T16:07:04.097Z,0.82
2022-10-01T16:10:46.286Z,1.02
2022-10-01T16:14:57.093Z,0.57
2022-10-01T16:25:02.448Z,1.00
2022-10-01T16:28:44.173Z,0.93
2022-10-01T16:31:54.483Z,0.80
2022-10-01T16:38:37.999Z,0.60
2022-10-01T16:41:56.547Z,0.80
2022-10-01T16:45:33.820Z,0.90
2022-10-01T16:48:41.656Z,0.70
2022-10-01T16:52:05.338Z,0.70
2022-10-01T16:58:46.656Z,0.67
2022-10-01T17:01:59.695Z,0.57
2022-10-01T17:05:06.291Z,0.80
2022-10-01T17:08:17.339Z,0.80
2022-10-01T17:11:24.099Z,1.00
2022-10-01T17:14:30.258Z,0.65
2022-10-01T17:17:37.358Z,0.90
2022-10-01T17:20:44.031Z,0.80
2022-10-01T17:27:24.319Z,0.70
2022-10-01T17:30:51.581Z,0.90
2022-10-01T17:33:58.661Z,0.80
2022-10-01T17:37:06.465Z,0.70
2022-10-01T17:43:20.214Z,0.83
2022-10-01T17:46:25.684Z,0.80
2022-10-01T17:49:29.781Z,0.65
2022-10-01T17:52:38.000Z,0.90
2022-10-01T17:55:57.164Z,0.50
2022-10-01T18:03:29.675Z,0.50
2022-10-01T18:07:03.924Z,1.55
2022-10-01T18:10:32.325Z,0.80
2022-10-01T18:14:00.371Z,0.98
2022-10-01T18:17:51.532Z,0.95
2022-10-01T18:24:17.751Z,0.75
2022-10-01T18:27:23.806Z,1.10
2022-10-01T18:30:29.776Z,1.13
2022-10-01T18:33:38.919Z,0.90
2022-10-01T18:37:23.586Z,0.93
2022-10-01T18:41:02.603Z,1.27
2022-10-01T18:44:26.698Z,0.80
2022-10-01T18:54:50.412Z,0.95
2022-10-01T19:01:35.823Z,0.82
2022-10-01T19:05:44.350Z,0.70
2022-10-01T19:09:13.040Z,0.70
2022-10-01T19:20:12.486Z,0.70
2022-10-01T19:31:19.990Z,0.80
2022-10-01T19:38:27.559Z,0.65
2022-10-01T19:42:08.857Z,0.55
2022-10-01T19:45:41.740Z,0.55
2022-10-01T19:49:19.336Z,0.70
2022-10-01T19:52:29.712Z,0.73
2022-10-01T19:55:39.011Z,0.98
2022-10-01T19:58:44.807Z,0.80
2022-10-01T20:01:59.150Z,0.90
2022-10-01T20:09:03.911Z,0.70
2022-10-01T20:16:01.679Z,1.00
2022-10-01T20:22:58.309Z,0.60
2022-10-01T20:26:38.882Z,0.80
2022-10-01T20:34:17.922Z,0.93
2022-10-01T20:41:51.439Z,0.75
2022-10-01T20:45:00.180Z,0.60
2022-10-01T20:48:33.594Z,0.50
2022-10-01T20:52:07.892Z,0.60
2022-10-01T20:55:46.410Z,0.77
2022-10-01T20:59:11.944Z,0.77
2022-10-01T21:02:36.626Z,0.93
2022-10-01T21:05:50.687Z,0.70
2022-10-01T21:09:14.869Z,0.80
2022-10-01T21:12:29.540Z,0.70
2022-10-01T21:16:11.490Z,0.70
2022-10-01T21:19:44.029Z,0.60
2022-10-01T21:23:22.027Z,0.60
2022-10-01T21:26:47.152Z,0.57
2022-10-01T21:30:11.335Z,0.40
2022-10-01T21:33:27.529Z,0.85
2022-10-01T21:36:41.267Z,0.55
2022-10-01T21:43:58.217Z,0.70
2022-10-01T21:47:16.464Z,0.65
2022-10-01T21:50:53.754Z,0.60
2022-10-01T21:54:28.692Z,0.70
2022-10-01T21:57:44.896Z,0.82
2022-10-01T22:01:32.733Z,0.50
2022-10-01T22:04:52.838Z,0.80
2022-10-01T22:08:09.227Z,0.70
2022-10-01T22:11:33.826Z,0.93
2022-10-01T22:14:44.100Z,0.50
2022-10-01T22:17:53.339Z,1.05
2022-10-01T22:21:01.226Z,0.70
2022-10-01T22:24:36.169Z,0.50
2022-10-01T22:27:56.534Z,1.10
2022-10-01T22:31:09.972Z,0.82
2022-10-01T22:34:32.963Z,0.90
2022-10-01T22:37:58.681Z,0.88
2022-10-01T22:41:34.452Z,0.85
2022-10-01T22:44:42.856Z,0.95
2022-10-01T22:48:00.101Z,0.60
2022-10-01T22:51:20.694Z,1.02
2022-10-01T22:54:46.727Z,0.60
2022-10-01T22:57:58.507Z,0.70
2022-10-01T23:01:14.344Z,0.75
2022-10-01T23:04:38.184Z,1.05
2022-10-01T23:07:52.339Z,1.38
2022-10-01T23:11:05.259Z,1.00
2022-10-01T23:14:12.648Z,1.50
2022-10-01T23:17:27.825Z,1.30
2022-10-01T23:21:00.927Z,1.10
2022-10-01T23:24:18.100Z,1.25
2022-10-01T23:27:33.225Z,1.20
2022-10-01T23:31:02.432Z,1.45
2022-10-01T23:34:43.222Z,1.38
2022-10-01T23:41:24.760Z,0.90
2022-10-01T23:44:43.799Z,1.45
2022-10-01T23:48:02.337Z,1.05
2022-10-01T23:51:18.831Z,0.40
2022-10-01T23:54:29.544Z,0.70
2022-10-01T23:57:44.294Z,1.10
